Aviation Digital Data Service (ADDS)

Output produced by METARs form (0618 UTC 19 March 2019)
found at http://www.aviationweather.gov/metar/data/
 
METAR text: FMMI 190600Z 07004KT 350V130 9999 FEW020 23/11 Q1020 NOSIG
Conditions at: FMMI (ANTANANARIVO/IVA, KM) observed 0600 UTC 19 March 2019
Temperature: 23.0°C (73°F)
Dewpoint: 11.0°C (52°F) [RH = 47%]
Pressure (altimeter): 30.12 inches Hg (1020.0 mb)
Winds: from the ENE (70 degrees) at 5 MPH (4 knots; 2.1 m/s)
Visibility: 6 or more miles (10+ km)
Ceiling: at least 12,000 feet AGL
Clouds: few clouds at 2000 feet AGL
Weather: no significant weather observed at this time

METAR text: FMMI 190530Z 11004KT 070V150 9999 FEW020 22/11 Q1020 NOSIG
Conditions at: FMMI (ANTANANARIVO/IVA, KM) observed 0530 UTC 19 March 2019
Temperature: 22.0°C (72°F)
Dewpoint: 11.0°C (52°F) [RH = 50%]
Pressure (altimeter): 30.12 inches Hg (1020.0 mb)
Winds: from the ESE (110 degrees) at 5 MPH (4 knots; 2.1 m/s)
Visibility: 6 or more miles (10+ km)
Ceiling: at least 12,000 feet AGL
Clouds: few clouds at 2000 feet AGL
Weather: no significant weather observed at this time

METAR text: FMMI 190500Z 11005KT 9999 FEW017 22/13 Q1020 NOSIG
Conditions at: FMMI (ANTANANARIVO/IVA, KM) observed 0500 UTC 19 March 2019
Temperature: 22.0°C (72°F)
Dewpoint: 13.0°C (55°F) [RH = 57%]
Pressure (altimeter): 30.12 inches Hg (1020.0 mb)
Winds: from the ESE (110 degrees) at 6 MPH (5 knots; 2.6 m/s)
Visibility: 6 or more miles (10+ km)
Ceiling: at least 12,000 feet AGL
Clouds: few clouds at 1700 feet AGL
Weather: no significant weather observed at this time

METAR text: FMMI 190430Z 13004KT 090V170 9999 FEW017 21/14 Q1020 NOSIG
Conditions at: FMMI (ANTANANARIVO/IVA, KM) observed 0430 UTC 19 March 2019
Temperature: 21.0°C (70°F)
Dewpoint: 14.0°C (57°F) [RH = 64%]
Pressure (altimeter): 30.12 inches Hg (1020.0 mb)
Winds: from the SE (130 degrees) at 5 MPH (4 knots; 2.1 m/s)
Visibility: 6 or more miles (10+ km)
Ceiling: at least 12,000 feet AGL
Clouds: few clouds at 1700 feet AGL
Weather: no significant weather observed at this time

METAR text: FMMI 190400Z 08003KT 050V110 9999 FEW017 20/16 Q1019 NOSIG
Conditions at: FMMI (ANTANANARIVO/IVA, KM) observed 0400 UTC 19 March 2019
Temperature: 20.0°C (68°F)
Dewpoint: 16.0°C (61°F) [RH = 78%]
Pressure (altimeter): 30.09 inches Hg (1019.0 mb)
Winds: from the E (80 degrees) at 3 MPH (3 knots; 1.5 m/s)
Visibility: 6 or more miles (10+ km)
Ceiling: at least 12,000 feet AGL
Clouds: few clouds at 1700 feet AGL
Weather: no significant weather observed at this time

METAR text: FMMI 190330Z 07004KT 030V090 9999 FEW017 SCT020 18/16 Q1019 NOSIG
Conditions at: FMMI (ANTANANARIVO/IVA, KM) observed 0330 UTC 19 March 2019
Temperature: 18.0°C (64°F)
Dewpoint: 16.0°C (61°F) [RH = 88%]
Pressure (altimeter): 30.09 inches Hg (1019.0 mb)
Winds: from the ENE (70 degrees) at 5 MPH (4 knots; 2.1 m/s)
Visibility: 6 or more miles (10+ km)
Ceiling: at least 12,000 feet AGL
Clouds: few clouds at 1700 feet AGL
scattered clouds at 2000 feet AGL
Weather: no significant weather observed at this time

METAR text: FMMI 190300Z VRB03KT 9999 FEW017 SCT030 17/16 Q1019 NOSIG
Conditions at: FMMI (ANTANANARIVO/IVA, KM) observed 0300 UTC 19 March 2019
Temperature: 17.0°C (63°F)
Dewpoint: 16.0°C (61°F) [RH = 94%]
Pressure (altimeter): 30.09 inches Hg (1019.0 mb)
Winds: variable direction winds at 3 MPH (3 knots; 1.5 m/s)
Visibility: 6 or more miles (10+ km)
Ceiling: at least 12,000 feet AGL
Clouds: few clouds at 1700 feet AGL
scattered clouds at 3000 feet AGL
Weather: no significant weather observed at this time

METAR text: FMMI 190230Z VRB02KT 9999 FEW017 SCT030 18/16 Q1018 NOSIG
Conditions at: FMMI (ANTANANARIVO/IVA, KM) observed 0230 UTC 19 March 2019
Temperature: 18.0°C (64°F)
Dewpoint: 16.0°C (61°F) [RH = 88%]
Pressure (altimeter): 30.06 inches Hg (1018.0 mb)
Winds: variable direction winds at 2 MPH (2 knots; 1.0 m/s)
Visibility: 6 or more miles (10+ km)
Ceiling: at least 12,000 feet AGL
Clouds: few clouds at 1700 feet AGL
scattered clouds at 3000 feet AGL
Weather: no significant weather observed at this time

METAR text: FMMI 190200Z 11004KT 9999 FEW017 18/16 Q1018 NOSIG
Conditions at: FMMI (ANTANANARIVO/IVA, KM) observed 0200 UTC 19 March 2019
Temperature: 18.0°C (64°F)
Dewpoint: 16.0°C (61°F) [RH = 88%]
Pressure (altimeter): 30.06 inches Hg (1018.0 mb)
Winds: from the ESE (110 degrees) at 5 MPH (4 knots; 2.1 m/s)
Visibility: 6 or more miles (10+ km)
Ceiling: at least 12,000 feet AGL
Clouds: few clouds at 1700 feet AGL
Weather: no significant weather observed at this time

METAR text: FMMI 190130Z 06003KT 9999 SCT020 18/16 Q1018 NOSIG
Conditions at: FMMI (ANTANANARIVO/IVA, KM) observed 0130 UTC 19 March 2019
Temperature: 18.0°C (64°F)
Dewpoint: 16.0°C (61°F) [RH = 88%]
Pressure (altimeter): 30.06 inches Hg (1018.0 mb)
Winds: from the ENE (60 degrees) at 3 MPH (3 knots; 1.5 m/s)
Visibility: 6 or more miles (10+ km)
Ceiling: at least 12,000 feet AGL
Clouds: scattered clouds at 2000 feet AGL
Weather: no significant weather observed at this time

METAR text: FMMI 190100Z 06004KT 9999 SCT020 18/17 Q1018 NOSIG
Conditions at: FMMI (ANTANANARIVO/IVA, KM) observed 0100 UTC 19 March 2019
Temperature: 18.0°C (64°F)
Dewpoint: 17.0°C (63°F) [RH = 94%]
Pressure (altimeter): 30.06 inches Hg (1018.0 mb)
Winds: from the ENE (60 degrees) at 5 MPH (4 knots; 2.1 m/s)
Visibility: 6 or more miles (10+ km)
Ceiling: at least 12,000 feet AGL
Clouds: scattered clouds at 2000 feet AGL
Weather: no significant weather observed at this time

METAR text: FMMI 190030Z 04003KT 9999 SCT020 19/17 Q1018 NOSIG
Conditions at: FMMI (ANTANANARIVO/IVA, KM) observed 0030 UTC 19 March 2019
Temperature: 19.0°C (66°F)
Dewpoint: 17.0°C (63°F) [RH = 88%]
Pressure (altimeter): 30.06 inches Hg (1018.0 mb)
Winds: from the NE (40 degrees) at 3 MPH (3 knots; 1.5 m/s)
Visibility: 6 or more miles (10+ km)
Ceiling: at least 12,000 feet AGL
Clouds: scattered clouds at 2000 feet AGL
Weather: no significant weather observed at this time

METAR text: FMMI 190000Z VRB01KT 9999 SCT020 19/17 Q1019 NOSIG
Conditions at: FMMI (ANTANANARIVO/IVA, KM) observed 0000 UTC 19 March 2019
Temperature: 19.0°C (66°F)
Dewpoint: 17.0°C (63°F) [RH = 88%]
Pressure (altimeter): 30.09 inches Hg (1019.0 mb)
Winds: variable direction winds at 1 MPH (1 knots; 0.5 m/s)
Visibility: 6 or more miles (10+ km)
Ceiling: at least 12,000 feet AGL
Clouds: scattered clouds at 2000 feet AGL
Weather: no significant weather observed at this time

METAR text: FMMI 182330Z VRB02KT 9999 SCT020 19/17 Q1019 NOSIG
Conditions at: FMMI (ANTANANARIVO/IVA, KM) observed 2330 UTC 18 March 2019
Temperature: 19.0°C (66°F)
Dewpoint: 17.0°C (63°F) [RH = 88%]
Pressure (altimeter): 30.09 inches Hg (1019.0 mb)
Winds: variable direction winds at 2 MPH (2 knots; 1.0 m/s)
Visibility: 6 or more miles (10+ km)
Ceiling: at least 12,000 feet AGL
Clouds: scattered clouds at 2000 feet AGL
Weather: no significant weather observed at this time

METAR text: FMMI 182300Z 03003KT 9999 FEW017 BKN020 19/17 Q1020 NOSIG
Conditions at: FMMI (ANTANANARIVO/IVA, KM) observed 2300 UTC 18 March 2019
Temperature: 19.0°C (66°F)
Dewpoint: 17.0°C (63°F) [RH = 88%]
Pressure (altimeter): 30.12 inches Hg (1020.0 mb)
Winds: from the NNE (30 degrees) at 3 MPH (3 knots; 1.5 m/s)
Visibility: 6 or more miles (10+ km)
Ceiling: 2000 feet AGL
Clouds: few clouds at 1700 feet AGL
broken clouds at 2000 feet AGL
Weather: no significant weather observed at this time

METAR text: FMMI 182230Z VRB02KT 9999 FEW010 BKN020 19/17 Q1020 NOSIG
Conditions at: FMMI (ANTANANARIVO/IVA, KM) observed 2230 UTC 18 March 2019
Temperature: 19.0°C (66°F)
Dewpoint: 17.0°C (63°F) [RH = 88%]
Pressure (altimeter): 30.12 inches Hg (1020.0 mb)
Winds: variable direction winds at 2 MPH (2 knots; 1.0 m/s)
Visibility: 6 or more miles (10+ km)
Ceiling: 2000 feet AGL
Clouds: few clouds at 1000 feet AGL
broken clouds at 2000 feet AGL
Weather: no significant weather observed at this time

METAR text: FMMI 182200Z 07005KT 9999 FEW010 BKN020 19/18 Q1020 NOSIG
Conditions at: FMMI (ANTANANARIVO/IVA, KM) observed 2200 UTC 18 March 2019
Temperature: 19.0°C (66°F)
Dewpoint: 18.0°C (64°F) [RH = 94%]
Pressure (altimeter): 30.12 inches Hg (1020.0 mb)
Winds: from the ENE (70 degrees) at 6 MPH (5 knots; 2.6 m/s)
Visibility: 6 or more miles (10+ km)
Ceiling: 2000 feet AGL
Clouds: few clouds at 1000 feet AGL
broken clouds at 2000 feet AGL
Weather: no significant weather observed at this time

METAR text: FMMI 182130Z 07004KT 9999 FEW010 BKN020 19/17 Q1020 NOSIG
Conditions at: FMMI (ANTANANARIVO/IVA, KM) observed 2130 UTC 18 March 2019
Temperature: 19.0°C (66°F)
Dewpoint: 17.0°C (63°F) [RH = 88%]
Pressure (altimeter): 30.12 inches Hg (1020.0 mb)
Winds: from the ENE (70 degrees) at 5 MPH (4 knots; 2.1 m/s)
Visibility: 6 or more miles (10+ km)
Ceiling: 2000 feet AGL
Clouds: few clouds at 1000 feet AGL
broken clouds at 2000 feet AGL
Weather: no significant weather observed at this time

METAR text: FMMI 182100Z 15005KT 120V190 9999 FEW017 BKN020 20/17 Q1021 NOSIG
Conditions at: FMMI (ANTANANARIVO/IVA, KM) observed 2100 UTC 18 March 2019
Temperature: 20.0°C (68°F)
Dewpoint: 17.0°C (63°F) [RH = 83%]
Pressure (altimeter): 30.15 inches Hg (1021.0 mb)
Winds: from the SSE (150 degrees) at 6 MPH (5 knots; 2.6 m/s)
Visibility: 6 or more miles (10+ km)
Ceiling: 2000 feet AGL
Clouds: few clouds at 1700 feet AGL
broken clouds at 2000 feet AGL
Weather: no significant weather observed at this time

METAR text: FMMI 182030Z 15006KT 120V180 9999 FEW017 BKN020 20/17 Q1021 NOSIG
Conditions at: FMMI (ANTANANARIVO/IVA, KM) observed 2030 UTC 18 March 2019
Temperature: 20.0°C (68°F)
Dewpoint: 17.0°C (63°F) [RH = 83%]
Pressure (altimeter): 30.15 inches Hg (1021.0 mb)
Winds: from the SSE (150 degrees) at 7 MPH (6 knots; 3.1 m/s)
Visibility: 6 or more miles (10+ km)
Ceiling: 2000 feet AGL
Clouds: few clouds at 1700 feet AGL
broken clouds at 2000 feet AGL
Weather: no significant weather observed at this time

METAR text: FMMI 182000Z 15006KT 110V170 9999 FEW017 BKN020 20/17 Q1021 NOSIG
Conditions at: FMMI (ANTANANARIVO/IVA, KM) observed 2000 UTC 18 March 2019
Temperature: 20.0°C (68°F)
Dewpoint: 17.0°C (63°F) [RH = 83%]
Pressure (altimeter): 30.15 inches Hg (1021.0 mb)
Winds: from the SSE (150 degrees) at 7 MPH (6 knots; 3.1 m/s)
Visibility: 6 or more miles (10+ km)
Ceiling: 2000 feet AGL
Clouds: few clouds at 1700 feet AGL
broken clouds at 2000 feet AGL
Weather: no significant weather observed at this time

METAR text: FMMI 181930Z 16007KT 130V190 9999 FEW017CB BKN020 21/17 Q1021 NOSIG
Conditions at: FMMI (ANTANANARIVO/IVA, KM) observed 1930 UTC 18 March 2019
Temperature: 21.0°C (70°F)
Dewpoint: 17.0°C (63°F) [RH = 78%]
Pressure (altimeter): 30.15 inches Hg (1021.0 mb)
Winds: from the SSE (160 degrees) at 8 MPH (7 knots; 3.6 m/s)
Visibility: 6 or more miles (10+ km)
Ceiling: 2000 feet AGL
Clouds: few clouds at 1700 feet AGL
broken clouds at 2000 feet AGL
Weather: no significant weather observed at this time

METAR text: FMMI 181900Z 11006KT 9999 FEW017CB BKN020 20/17 Q1021 NOSIG
Conditions at: FMMI (ANTANANARIVO/IVA, KM) observed 1900 UTC 18 March 2019
Temperature: 20.0°C (68°F)
Dewpoint: 17.0°C (63°F) [RH = 83%]
Pressure (altimeter): 30.15 inches Hg (1021.0 mb)
Winds: from the ESE (110 degrees) at 7 MPH (6 knots; 3.1 m/s)
Visibility: 6 or more miles (10+ km)
Ceiling: 2000 feet AGL
Clouds: few clouds at 1700 feet AGL
broken clouds at 2000 feet AGL
Weather: no significant weather observed at this time

METAR text: FMMI 181830Z 10008KT 9999 VCTS FEW017CB BKN020 20/17 Q1021 NOSIG
Conditions at: FMMI (ANTANANARIVO/IVA, KM) observed 1830 UTC 18 March 2019
Temperature: 20.0°C (68°F)
Dewpoint: 17.0°C (63°F) [RH = 83%]
Pressure (altimeter): 30.15 inches Hg (1021.0 mb)
Winds: from the E (100 degrees) at 9 MPH (8 knots; 4.1 m/s)
Visibility: 6 or more miles (10+ km)
Ceiling: 2000 feet AGL
Clouds: few clouds at 1700 feet AGL
broken clouds at 2000 feet AGL
Weather: VCTS  (thunderstorm in vicinity)

METAR text: FMMI 181800Z 12009KT 090V170 9999 VCTS FEW017CB BKN020 21/17 Q1021 NOSIG
Conditions at: FMMI (ANTANANARIVO/IVA, KM) observed 1800 UTC 18 March 2019
Temperature: 21.0°C (70°F)
Dewpoint: 17.0°C (63°F) [RH = 78%]
Pressure (altimeter): 30.15 inches Hg (1021.0 mb)
Winds: from the ESE (120 degrees) at 10 MPH (9 knots; 4.6 m/s)
Visibility: 6 or more miles (10+ km)
Ceiling: 2000 feet AGL
Clouds: few clouds at 1700 feet AGL
broken clouds at 2000 feet AGL
Weather: VCTS  (thunderstorm in vicinity)

METAR text: FMMI 181730Z 12004KT 090V160 9999 VCTS FEW017CB BKN020 21/17 Q1021 NOSIG
Conditions at: FMMI (ANTANANARIVO/IVA, KM) observed 1730 UTC 18 March 2019
Temperature: 21.0°C (70°F)
Dewpoint: 17.0°C (63°F) [RH = 78%]
Pressure (altimeter): 30.15 inches Hg (1021.0 mb)
Winds: from the ESE (120 degrees) at 5 MPH (4 knots; 2.1 m/s)
Visibility: 6 or more miles (10+ km)
Ceiling: 2000 feet AGL
Clouds: few clouds at 1700 feet AGL
broken clouds at 2000 feet AGL
Weather: VCTS  (thunderstorm in vicinity)

METAR text: FMMI 181700Z 11010KT 9999 VCTS FEW017CB BKN020 21/17 Q1020 NOSIG
Conditions at: FMMI (ANTANANARIVO/IVA, KM) observed 1700 UTC 18 March 2019
Temperature: 21.0°C (70°F)
Dewpoint: 17.0°C (63°F) [RH = 78%]
Pressure (altimeter): 30.12 inches Hg (1020.0 mb)
Winds: from the ESE (110 degrees) at 12 MPH (10 knots; 5.1 m/s)
Visibility: 6 or more miles (10+ km)
Ceiling: 2000 feet AGL
Clouds: few clouds at 1700 feet AGL
broken clouds at 2000 feet AGL
Weather: VCTS  (thunderstorm in vicinity)

METAR text: FMMI 181630Z 10008KT 9999 VCTS FEW017CB BKN020 22/17 Q1020 NOSIG
Conditions at: FMMI (ANTANANARIVO/IVA, KM) observed 1630 UTC 18 March 2019
Temperature: 22.0°C (72°F)
Dewpoint: 17.0°C (63°F) [RH = 73%]
Pressure (altimeter): 30.12 inches Hg (1020.0 mb)
Winds: from the E (100 degrees) at 9 MPH (8 knots; 4.1 m/s)
Visibility: 6 or more miles (10+ km)
Ceiling: 2000 feet AGL
Clouds: few clouds at 1700 feet AGL
broken clouds at 2000 feet AGL
Weather: VCTS  (thunderstorm in vicinity)

METAR text: FMMI 181600Z 11006KT 070V180 9999 VCTS FEW017CB BKN020 22/17 Q1019 NOSIG
Conditions at: FMMI (ANTANANARIVO/IVA, KM) observed 1600 UTC 18 March 2019
Temperature: 22.0°C (72°F)
Dewpoint: 17.0°C (63°F) [RH = 73%]
Pressure (altimeter): 30.09 inches Hg (1019.0 mb)
Winds: from the ESE (110 degrees) at 7 MPH (6 knots; 3.1 m/s)
Visibility: 6 or more miles (10+ km)
Ceiling: 2000 feet AGL
Clouds: few clouds at 1700 feet AGL
broken clouds at 2000 feet AGL
Weather: VCTS  (thunderstorm in vicinity)

METAR text: FMMI 181530Z VRB04KT 9999 FEW017CB BKN020 21/19 Q1019 NOSIG
Conditions at: FMMI (ANTANANARIVO/IVA, KM) observed 1530 UTC 18 March 2019
Temperature: 21.0°C (70°F)
Dewpoint: 19.0°C (66°F) [RH = 88%]
Pressure (altimeter): 30.09 inches Hg (1019.0 mb)
Winds: variable direction winds at 5 MPH (4 knots; 2.1 m/s)
Visibility: 6 or more miles (10+ km)
Ceiling: 2000 feet AGL
Clouds: few clouds at 1700 feet AGL
broken clouds at 2000 feet AGL
Weather: no significant weather observed at this time

METAR text: FMMI 181500Z 33004KT 290V050 9999 FEW017CB BKN020 22/20 Q1018 NOSIG
Conditions at: FMMI (ANTANANARIVO/IVA, KM) observed 1500 UTC 18 March 2019
Temperature: 22.0°C (72°F)
Dewpoint: 20.0°C (68°F) [RH = 88%]
Pressure (altimeter): 30.06 inches Hg (1018.0 mb)
Winds: from the NNW (330 degrees) at 5 MPH (4 knots; 2.1 m/s)
Visibility: 6 or more miles (10+ km)
Ceiling: 2000 feet AGL
Clouds: few clouds at 1700 feet AGL
broken clouds at 2000 feet AGL
Weather: no significant weather observed at this time

METAR text: FMMI 181430Z 14004KT 110V180 9999 VCTS FEW017CB BKN020 23/18 Q1018 TEMPO TS
Conditions at: FMMI (ANTANANARIVO/IVA, KM) observed 1430 UTC 18 March 2019
Temperature: 23.0°C (73°F)
Dewpoint: 18.0°C (64°F) [RH = 73%]
Pressure (altimeter): 30.06 inches Hg (1018.0 mb)
Winds: from the SE (140 degrees) at 5 MPH (4 knots; 2.1 m/s)
Visibility: 6 or more miles (10+ km)
Ceiling: 2000 feet AGL
Clouds: few clouds at 1700 feet AGL
broken clouds at 2000 feet AGL
Weather: VCTS  (thunderstorm in vicinity)

METAR text: FMMI 181400Z 15005KT 120V190 9999 -TSRA FEW017CB SCT020 22/18 Q1017 NOSIG
Conditions at: FMMI (ANTANANARIVO/IVA, KM) observed 1400 UTC 18 March 2019
Temperature: 22.0°C (72°F)
Dewpoint: 18.0°C (64°F) [RH = 78%]
Pressure (altimeter): 30.03 inches Hg (1017.0 mb)
Winds: from the SSE (150 degrees) at 6 MPH (5 knots; 2.6 m/s)
Visibility: 6 or more miles (10+ km)
Ceiling: at least 12,000 feet AGL
Clouds: few clouds at 1700 feet AGL
scattered clouds at 2000 feet AGL
Weather: -TSRA  (light rain associated with thunderstorm(s))

METAR text: FMMI 181343Z 17006KT 9999 -TSRA SCT017CB SCT020 22/18 Q1017 NOSIG
Conditions at: FMMI (ANTANANARIVO/IVA, KM) observed 1343 UTC 18 March 2019
Temperature: 22.0°C (72°F)
Dewpoint: 18.0°C (64°F) [RH = 78%]
Pressure (altimeter): 30.03 inches Hg (1017.0 mb)
Winds: from the S (170 degrees) at 7 MPH (6 knots; 3.1 m/s)
Visibility: 6 or more miles (10+ km)
Ceiling: at least 12,000 feet AGL
Clouds: scattered clouds at 1700 feet AGL
scattered clouds at 2000 feet AGL
Weather: -TSRA  (light rain associated with thunderstorm(s))

METAR text: FMMI 181330Z 11008KT 080V150 9999 -RA SCT017CB SCT020 23/18 Q1017 NOSIG
Conditions at: FMMI (ANTANANARIVO/IVA, KM) observed 1330 UTC 18 March 2019
Temperature: 23.0°C (73°F)
Dewpoint: 18.0°C (64°F) [RH = 73%]
Pressure (altimeter): 30.03 inches Hg (1017.0 mb)
Winds: from the ESE (110 degrees) at 9 MPH (8 knots; 4.1 m/s)
Visibility: 6 or more miles (10+ km)
Ceiling: at least 12,000 feet AGL
Clouds: scattered clouds at 1700 feet AGL
scattered clouds at 2000 feet AGL
Weather: -RA  (light rain)

METAR text: FMMI 181300Z 08009KT 9999 SCT017CB SCT020 25/16 Q1017 NOSIG
Conditions at: FMMI (ANTANANARIVO/IVA, KM) observed 1300 UTC 18 March 2019
Temperature: 25.0°C (77°F)
Dewpoint: 16.0°C (61°F) [RH = 57%]
Pressure (altimeter): 30.03 inches Hg (1017.0 mb)
Winds: from the E (80 degrees) at 10 MPH (9 knots; 4.6 m/s)
Visibility: 6 or more miles (10+ km)
Ceiling: at least 12,000 feet AGL
Clouds: scattered clouds at 1700 feet AGL
scattered clouds at 2000 feet AGL
Weather: no significant weather observed at this time

METAR text: FMMI 181230Z 07004KT 040V130 9999 FEW017CB BKN020 27/16 Q1017 NOSIG
Conditions at: FMMI (ANTANANARIVO/IVA, KM) observed 1230 UTC 18 March 2019
Temperature: 27.0°C (81°F)
Dewpoint: 16.0°C (61°F) [RH = 51%]
Pressure (altimeter): 30.03 inches Hg (1017.0 mb)
Winds: from the ENE (70 degrees) at 5 MPH (4 knots; 2.1 m/s)
Visibility: 6 or more miles (10+ km)
Ceiling: 2000 feet AGL
Clouds: few clouds at 1700 feet AGL
broken clouds at 2000 feet AGL
Weather: no significant weather observed at this time

METAR text: FMMI 181200Z VRB05KT 9999 FEW017CB BKN020 27/16 Q1017 NOSIG
Conditions at: FMMI (ANTANANARIVO/IVA, KM) observed 1200 UTC 18 March 2019
Temperature: 27.0°C (81°F)
Dewpoint: 16.0°C (61°F) [RH = 51%]
Pressure (altimeter): 30.03 inches Hg (1017.0 mb)
Winds: variable direction winds at 6 MPH (5 knots; 2.6 m/s)
Visibility: 6 or more miles (10+ km)
Ceiling: 2000 feet AGL
Clouds: few clouds at 1700 feet AGL
broken clouds at 2000 feet AGL
Weather: no significant weather observed at this time

METAR text: FMMI 181130Z 09004KT 040V130 9999 FEW017CB BKN020 28/16 Q1017 NOSIG
Conditions at: FMMI (ANTANANARIVO/IVA, KM) observed 1130 UTC 18 March 2019
Temperature: 28.0°C (82°F)
Dewpoint: 16.0°C (61°F) [RH = 48%]
Pressure (altimeter): 30.03 inches Hg (1017.0 mb)
Winds: from the E (90 degrees) at 5 MPH (4 knots; 2.1 m/s)
Visibility: 6 or more miles (10+ km)
Ceiling: 2000 feet AGL
Clouds: few clouds at 1700 feet AGL
broken clouds at 2000 feet AGL
Weather: no significant weather observed at this time

METAR text: FMMI 181100Z VRB04KT 9999 FEW017CB BKN020 29/15 Q1017 NOSIG
Conditions at: FMMI (ANTANANARIVO/IVA, KM) observed 1100 UTC 18 March 2019
Temperature: 29.0°C (84°F)
Dewpoint: 15.0°C (59°F) [RH = 43%]
Pressure (altimeter): 30.03 inches Hg (1017.0 mb)
Winds: variable direction winds at 5 MPH (4 knots; 2.1 m/s)
Visibility: 6 or more miles (10+ km)
Ceiling: 2000 feet AGL
Clouds: few clouds at 1700 feet AGL
broken clouds at 2000 feet AGL
Weather: no significant weather observed at this time

METAR text: FMMI 181030Z VRB03KT 9999 FEW017CB BKN020 28/17 Q1018 NOSIG
Conditions at: FMMI (ANTANANARIVO/IVA, KM) observed 1030 UTC 18 March 2019
Temperature: 28.0°C (82°F)
Dewpoint: 17.0°C (63°F) [RH = 51%]
Pressure (altimeter): 30.06 inches Hg (1018.0 mb)
Winds: variable direction winds at 3 MPH (3 knots; 1.5 m/s)
Visibility: 6 or more miles (10+ km)
Ceiling: 2000 feet AGL
Clouds: few clouds at 1700 feet AGL
broken clouds at 2000 feet AGL
Weather: no significant weather observed at this time

METAR text: FMMI 181000Z VRB03KT 9999 FEW017TCU BKN020 28/16 Q1018 NOSIG
Conditions at: FMMI (ANTANANARIVO/IVA, KM) observed 1000 UTC 18 March 2019
Temperature: 28.0°C (82°F)
Dewpoint: 16.0°C (61°F) [RH = 48%]
Pressure (altimeter): 30.06 inches Hg (1018.0 mb)
Winds: variable direction winds at 3 MPH (3 knots; 1.5 m/s)
Visibility: 6 or more miles (10+ km)
Ceiling: 2000 feet AGL
Clouds: few clouds at 1700 feet AGL
broken clouds at 2000 feet AGL
Weather: no significant weather observed at this time

METAR text: FMMI 180930Z VRB02KT 9999 BKN020 28/16 Q1019 NOSIG
Conditions at: FMMI (ANTANANARIVO/IVA, KM) observed 0930 UTC 18 March 2019
Temperature: 28.0°C (82°F)
Dewpoint: 16.0°C (61°F) [RH = 48%]
Pressure (altimeter): 30.09 inches Hg (1019.0 mb)
Winds: variable direction winds at 2 MPH (2 knots; 1.0 m/s)
Visibility: 6 or more miles (10+ km)
Ceiling: 2000 feet AGL
Clouds: broken clouds at 2000 feet AGL
Weather: no significant weather observed at this time

METAR text: FMMI 180900Z VRB04KT 9999 BKN020 28/16 Q1019 NOSIG
Conditions at: FMMI (ANTANANARIVO/IVA, KM) observed 0900 UTC 18 March 2019
Temperature: 28.0°C (82°F)
Dewpoint: 16.0°C (61°F) [RH = 48%]
Pressure (altimeter): 30.09 inches Hg (1019.0 mb)
Winds: variable direction winds at 5 MPH (4 knots; 2.1 m/s)
Visibility: 6 or more miles (10+ km)
Ceiling: 2000 feet AGL
Clouds: broken clouds at 2000 feet AGL
Weather: no significant weather observed at this time

METAR text: FMMI 180830Z 08005KT 020V150 9999 BKN020 28/18 Q1020 NOSIG
Conditions at: FMMI (ANTANANARIVO/IVA, KM) observed 0830 UTC 18 March 2019
Temperature: 28.0°C (82°F)
Dewpoint: 18.0°C (64°F) [RH = 55%]
Pressure (altimeter): 30.12 inches Hg (1020.0 mb)
Winds: from the E (80 degrees) at 6 MPH (5 knots; 2.6 m/s)
Visibility: 6 or more miles (10+ km)
Ceiling: 2000 feet AGL
Clouds: broken clouds at 2000 feet AGL
Weather: no significant weather observed at this time

METAR text: FMMI 180800Z VRB04KT 9999 SCT017 27/18 Q1020 NOSIG
Conditions at: FMMI (ANTANANARIVO/IVA, KM) observed 0800 UTC 18 March 2019
Temperature: 27.0°C (81°F)
Dewpoint: 18.0°C (64°F) [RH = 58%]
Pressure (altimeter): 30.12 inches Hg (1020.0 mb)
Winds: variable direction winds at 5 MPH (4 knots; 2.1 m/s)
Visibility: 6 or more miles (10+ km)
Ceiling: at least 12,000 feet AGL
Clouds: scattered clouds at 1700 feet AGL
Weather: no significant weather observed at this time

METAR text: FMMI 180730Z VRB03KT 9999 SCT017 26/18 Q1021 NOSIG
Conditions at: FMMI (ANTANANARIVO/IVA, KM) observed 0730 UTC 18 March 2019
Temperature: 26.0°C (79°F)
Dewpoint: 18.0°C (64°F) [RH = 61%]
Pressure (altimeter): 30.15 inches Hg (1021.0 mb)
Winds: variable direction winds at 3 MPH (3 knots; 1.5 m/s)
Visibility: 6 or more miles (10+ km)
Ceiling: at least 12,000 feet AGL
Clouds: scattered clouds at 1700 feet AGL
Weather: no significant weather observed at this time

METAR text: FMMI 180700Z 05003KT 350V110 9999 SCT017 26/18 Q1021 NOSIG
Conditions at: FMMI (ANTANANARIVO/IVA, KM) observed 0700 UTC 18 March 2019
Temperature: 26.0°C (79°F)
Dewpoint: 18.0°C (64°F) [RH = 61%]
Pressure (altimeter): 30.15 inches Hg (1021.0 mb)
Winds: from the NE (50 degrees) at 3 MPH (3 knots; 1.5 m/s)
Visibility: 6 or more miles (10+ km)
Ceiling: at least 12,000 feet AGL
Clouds: scattered clouds at 1700 feet AGL
Weather: no significant weather observed at this time

METAR text: FMMI 180630Z VRB03KT 9999 SCT017 26/18 Q1021 NOSIG
Conditions at: FMMI (ANTANANARIVO/IVA, KM) observed 0630 UTC 18 March 2019
Temperature: 26.0°C (79°F)
Dewpoint: 18.0°C (64°F) [RH = 61%]
Pressure (altimeter): 30.15 inches Hg (1021.0 mb)
Winds: variable direction winds at 3 MPH (3 knots; 1.5 m/s)
Visibility: 6 or more miles (10+ km)
Ceiling: at least 12,000 feet AGL
Clouds: scattered clouds at 1700 feet AGL
Weather: no significant weather observed at this time

METAR text: FMMI 180600Z VRB03KT 9999 SCT017 25/18 Q1021 NOSIG
Conditions at: FMMI (ANTANANARIVO/IVA, KM) observed 0600 UTC 18 March 2019
Temperature: 25.0°C (77°F)
Dewpoint: 18.0°C (64°F) [RH = 65%]
Pressure (altimeter): 30.15 inches Hg (1021.0 mb)
Winds: variable direction winds at 3 MPH (3 knots; 1.5 m/s)
Visibility: 6 or more miles (10+ km)
Ceiling: at least 12,000 feet AGL
Clouds: scattered clouds at 1700 feet AGL
Weather: no significant weather observed at this time

METAR text: FMMI 180530Z VRB04KT 9999 SCT017 SCT027 25/19 Q1021 NOSIG
Conditions at: FMMI (ANTANANARIVO/IVA, KM) observed 0530 UTC 18 March 2019
Temperature: 25.0°C (77°F)
Dewpoint: 19.0°C (66°F) [RH = 69%]
Pressure (altimeter): 30.15 inches Hg (1021.0 mb)
Winds: variable direction winds at 5 MPH (4 knots; 2.1 m/s)
Visibility: 6 or more miles (10+ km)
Ceiling: at least 12,000 feet AGL
Clouds: scattered clouds at 1700 feet AGL
scattered clouds at 2700 feet AGL
Weather: no significant weather observed at this time

METAR text: FMMI 180500Z 06004KT 350V110 9999 FEW017 SCT027 24/19 Q1021 NOSIG
Conditions at: FMMI (ANTANANARIVO/IVA, KM) observed 0500 UTC 18 March 2019
Temperature: 24.0°C (75°F)
Dewpoint: 19.0°C (66°F) [RH = 74%]
Pressure (altimeter): 30.15 inches Hg (1021.0 mb)
Winds: from the ENE (60 degrees) at 5 MPH (4 knots; 2.1 m/s)
Visibility: 6 or more miles (10+ km)
Ceiling: at least 12,000 feet AGL
Clouds: few clouds at 1700 feet AGL
scattered clouds at 2700 feet AGL
Weather: no significant weather observed at this time

METAR text: FMMI 180430Z 07004KT 040V110 9999 FEW017 SCT028 23/18 Q1020 NOSIG
Conditions at: FMMI (ANTANANARIVO/IVA, KM) observed 0430 UTC 18 March 2019
Temperature: 23.0°C (73°F)
Dewpoint: 18.0°C (64°F) [RH = 73%]
Pressure (altimeter): 30.12 inches Hg (1020.0 mb)
Winds: from the ENE (70 degrees) at 5 MPH (4 knots; 2.1 m/s)
Visibility: 6 or more miles (10+ km)
Ceiling: at least 12,000 feet AGL
Clouds: few clouds at 1700 feet AGL
scattered clouds at 2800 feet AGL
Weather: no significant weather observed at this time

METAR text: FMMI 180400Z VRB02KT 9999 FEW017 SCT028 22/18 Q1020 NOSIG
Conditions at: FMMI (ANTANANARIVO/IVA, KM) observed 0400 UTC 18 March 2019
Temperature: 22.0°C (72°F)
Dewpoint: 18.0°C (64°F) [RH = 78%]
Pressure (altimeter): 30.12 inches Hg (1020.0 mb)
Winds: variable direction winds at 2 MPH (2 knots; 1.0 m/s)
Visibility: 6 or more miles (10+ km)
Ceiling: at least 12,000 feet AGL
Clouds: few clouds at 1700 feet AGL
scattered clouds at 2800 feet AGL
Weather: no significant weather observed at this time

METAR text: FMMI 180330Z 03002KT 9999 FEW017 BKN020 19/18 Q1020 NOSIG
Conditions at: FMMI (ANTANANARIVO/IVA, KM) observed 0330 UTC 18 March 2019
Temperature: 19.0°C (66°F)
Dewpoint: 18.0°C (64°F) [RH = 94%]
Pressure (altimeter): 30.12 inches Hg (1020.0 mb)
Winds: from the NNE (30 degrees) at 2 MPH (2 knots; 1.0 m/s)
Visibility: 6 or more miles (10+ km)
Ceiling: 2000 feet AGL
Clouds: few clouds at 1700 feet AGL
broken clouds at 2000 feet AGL
Weather: no significant weather observed at this time

METAR text: FMMI 180300Z 04002KT 9999 FEW017 BKN020 19/18 Q1019 NOSIG
Conditions at: FMMI (ANTANANARIVO/IVA, KM) observed 0300 UTC 18 March 2019
Temperature: 19.0°C (66°F)
Dewpoint: 18.0°C (64°F) [RH = 94%]
Pressure (altimeter): 30.09 inches Hg (1019.0 mb)
Winds: from the NE (40 degrees) at 2 MPH (2 knots; 1.0 m/s)
Visibility: 6 or more miles (10+ km)
Ceiling: 2000 feet AGL
Clouds: few clouds at 1700 feet AGL
broken clouds at 2000 feet AGL
Weather: no significant weather observed at this time

METAR text: FMMI 180230Z VRB02KT 9999 FEW017 BKN020 19/18 Q1019 NOSIG
Conditions at: FMMI (ANTANANARIVO/IVA, KM) observed 0230 UTC 18 March 2019
Temperature: 19.0°C (66°F)
Dewpoint: 18.0°C (64°F) [RH = 94%]
Pressure (altimeter): 30.09 inches Hg (1019.0 mb)
Winds: variable direction winds at 2 MPH (2 knots; 1.0 m/s)
Visibility: 6 or more miles (10+ km)
Ceiling: 2000 feet AGL
Clouds: few clouds at 1700 feet AGL
broken clouds at 2000 feet AGL
Weather: no significant weather observed at this time

METAR text: FMMI 180200Z 07004KT 9999 FEW017 SCT020 19/18 Q1019 NOSIG
Conditions at: FMMI (ANTANANARIVO/IVA, KM) observed 0200 UTC 18 March 2019
Temperature: 19.0°C (66°F)
Dewpoint: 18.0°C (64°F) [RH = 94%]
Pressure (altimeter): 30.09 inches Hg (1019.0 mb)
Winds: from the ENE (70 degrees) at 5 MPH (4 knots; 2.1 m/s)
Visibility: 6 or more miles (10+ km)
Ceiling: at least 12,000 feet AGL
Clouds: few clouds at 1700 feet AGL
scattered clouds at 2000 feet AGL
Weather: no significant weather observed at this time

METAR text: FMMI 180130Z 07003KT 9999 FEW017 SCT020 19/18 Q1019 NOSIG
Conditions at: FMMI (ANTANANARIVO/IVA, KM) observed 0130 UTC 18 March 2019
Temperature: 19.0°C (66°F)
Dewpoint: 18.0°C (64°F) [RH = 94%]
Pressure (altimeter): 30.09 inches Hg (1019.0 mb)
Winds: from the ENE (70 degrees) at 3 MPH (3 knots; 1.5 m/s)
Visibility: 6 or more miles (10+ km)
Ceiling: at least 12,000 feet AGL
Clouds: few clouds at 1700 feet AGL
scattered clouds at 2000 feet AGL
Weather: no significant weather observed at this time

METAR text: FMMI 180100Z 07003KT 9999 FEW017 BKN020 19/18 Q1019 NOSIG
Conditions at: FMMI (ANTANANARIVO/IVA, KM) observed 0100 UTC 18 March 2019
Temperature: 19.0°C (66°F)
Dewpoint: 18.0°C (64°F) [RH = 94%]
Pressure (altimeter): 30.09 inches Hg (1019.0 mb)
Winds: from the ENE (70 degrees) at 3 MPH (3 knots; 1.5 m/s)
Visibility: 6 or more miles (10+ km)
Ceiling: 2000 feet AGL
Clouds: few clouds at 1700 feet AGL
broken clouds at 2000 feet AGL
Weather: no significant weather observed at this time

METAR text: FMMI 180030Z VRB02KT 9999 FEW017 BKN020 20/18 Q1019 NOSIG
Conditions at: FMMI (ANTANANARIVO/IVA, KM) observed 0030 UTC 18 March 2019
Temperature: 20.0°C (68°F)
Dewpoint: 18.0°C (64°F) [RH = 88%]
Pressure (altimeter): 30.09 inches Hg (1019.0 mb)
Winds: variable direction winds at 2 MPH (2 knots; 1.0 m/s)
Visibility: 6 or more miles (10+ km)
Ceiling: 2000 feet AGL
Clouds: few clouds at 1700 feet AGL
broken clouds at 2000 feet AGL
Weather: no significant weather observed at this time

METAR text: FMMI 180000Z VRB02KT 9999 FEW017 BKN020 19/18 Q1019 NOSIG
Conditions at: FMMI (ANTANANARIVO/IVA, KM) observed 0000 UTC 18 March 2019
Temperature: 19.0°C (66°F)
Dewpoint: 18.0°C (64°F) [RH = 94%]
Pressure (altimeter): 30.09 inches Hg (1019.0 mb)
Winds: variable direction winds at 2 MPH (2 knots; 1.0 m/s)
Visibility: 6 or more miles (10+ km)
Ceiling: 2000 feet AGL
Clouds: few clouds at 1700 feet AGL
broken clouds at 2000 feet AGL
Weather: no significant weather observed at this time

METAR text: FMMI 172330Z VRB02KT 9999 FEW017 BKN020 19/18 Q1019 NOSIG
Conditions at: FMMI (ANTANANARIVO/IVA, KM) observed 2330 UTC 17 March 2019
Temperature: 19.0°C (66°F)
Dewpoint: 18.0°C (64°F) [RH = 94%]
Pressure (altimeter): 30.09 inches Hg (1019.0 mb)
Winds: variable direction winds at 2 MPH (2 knots; 1.0 m/s)
Visibility: 6 or more miles (10+ km)
Ceiling: 2000 feet AGL
Clouds: few clouds at 1700 feet AGL
broken clouds at 2000 feet AGL
Weather: no significant weather observed at this time

METAR text: FMMI 172300Z 03003KT 9999 FEW017 BKN020 20/18 Q1019 NOSIG
Conditions at: FMMI (ANTANANARIVO/IVA, KM) observed 2300 UTC 17 March 2019
Temperature: 20.0°C (68°F)
Dewpoint: 18.0°C (64°F) [RH = 88%]
Pressure (altimeter): 30.09 inches Hg (1019.0 mb)
Winds: from the NNE (30 degrees) at 3 MPH (3 knots; 1.5 m/s)
Visibility: 6 or more miles (10+ km)
Ceiling: 2000 feet AGL
Clouds: few clouds at 1700 feet AGL
broken clouds at 2000 feet AGL
Weather: no significant weather observed at this time

METAR text: FMMI 172230Z 02003KT 9999 FEW017 BKN020 20/19 Q1019 NOSIG
Conditions at: FMMI (ANTANANARIVO/IVA, KM) observed 2230 UTC 17 March 2019
Temperature: 20.0°C (68°F)
Dewpoint: 19.0°C (66°F) [RH = 94%]
Pressure (altimeter): 30.09 inches Hg (1019.0 mb)
Winds: from the NNE (20 degrees) at 3 MPH (3 knots; 1.5 m/s)
Visibility: 6 or more miles (10+ km)
Ceiling: 2000 feet AGL
Clouds: few clouds at 1700 feet AGL
broken clouds at 2000 feet AGL
Weather: no significant weather observed at this time

METAR text: FMMI 172200Z 05004KT 360V080 9999 FEW010 BKN020 20/19 Q1019 NOSIG
Conditions at: FMMI (ANTANANARIVO/IVA, KM) observed 2200 UTC 17 March 2019
Temperature: 20.0°C (68°F)
Dewpoint: 19.0°C (66°F) [RH = 94%]
Pressure (altimeter): 30.09 inches Hg (1019.0 mb)
Winds: from the NE (50 degrees) at 5 MPH (4 knots; 2.1 m/s)
Visibility: 6 or more miles (10+ km)
Ceiling: 2000 feet AGL
Clouds: few clouds at 1000 feet AGL
broken clouds at 2000 feet AGL
Weather: no significant weather observed at this time

METAR text: FMMI 172130Z 08007KT 9999 FEW010 BKN020 20/19 Q1019 NOSIG
Conditions at: FMMI (ANTANANARIVO/IVA, KM) observed 2130 UTC 17 March 2019
Temperature: 20.0°C (68°F)
Dewpoint: 19.0°C (66°F) [RH = 94%]
Pressure (altimeter): 30.09 inches Hg (1019.0 mb)
Winds: from the E (80 degrees) at 8 MPH (7 knots; 3.6 m/s)
Visibility: 6 or more miles (10+ km)
Ceiling: 2000 feet AGL
Clouds: few clouds at 1000 feet AGL
broken clouds at 2000 feet AGL
Weather: no significant weather observed at this time

METAR text: FMMI 172100Z 08004KT 9999 FEW017 SCT020 BKN040 20/19 Q1020 NOSIG
Conditions at: FMMI (ANTANANARIVO/IVA, KM) observed 2100 UTC 17 March 2019
Temperature: 20.0°C (68°F)
Dewpoint: 19.0°C (66°F) [RH = 94%]
Pressure (altimeter): 30.12 inches Hg (1020.0 mb)
Winds: from the E (80 degrees) at 5 MPH (4 knots; 2.1 m/s)
Visibility: 6 or more miles (10+ km)
Ceiling: 4000 feet AGL
Clouds: few clouds at 1700 feet AGL
scattered clouds at 2000 feet AGL
broken clouds at 4000 feet AGL
Weather: no significant weather observed at this time

METAR text: FMMI 172030Z 04004KT 360V080 9999 FEW017 SCT020 BKN041 20/19 Q1020 NOSIG
Conditions at: FMMI (ANTANANARIVO/IVA, KM) observed 2030 UTC 17 March 2019
Temperature: 20.0°C (68°F)
Dewpoint: 19.0°C (66°F) [RH = 94%]
Pressure (altimeter): 30.12 inches Hg (1020.0 mb)
Winds: from the NE (40 degrees) at 5 MPH (4 knots; 2.1 m/s)
Visibility: 6 or more miles (10+ km)
Ceiling: 4100 feet AGL
Clouds: few clouds at 1700 feet AGL
scattered clouds at 2000 feet AGL
broken clouds at 4100 feet AGL
Weather: no significant weather observed at this time

METAR text: FMMI 172000Z 06004KT 9999 FEW017 SCT020 20/19 Q1020 RETS NOSIG
Conditions at: FMMI (ANTANANARIVO/IVA, KM) observed 2000 UTC 17 March 2019
Temperature: 20.0°C (68°F)
Dewpoint: 19.0°C (66°F) [RH = 94%]
Pressure (altimeter): 30.12 inches Hg (1020.0 mb)
Winds: from the ENE (60 degrees) at 5 MPH (4 knots; 2.1 m/s)
Visibility: 6 or more miles (10+ km)
Ceiling: at least 12,000 feet AGL
Clouds: few clouds at 1700 feet AGL
scattered clouds at 2000 feet AGL
Weather: no significant weather observed at this time

METAR text: FMMI 171930Z 05005KT 9999 VCTS FEW017CB BKN020 20/18 Q1020 NOSIG
Conditions at: FMMI (ANTANANARIVO/IVA, KM) observed 1930 UTC 17 March 2019
Temperature: 20.0°C (68°F)
Dewpoint: 18.0°C (64°F) [RH = 88%]
Pressure (altimeter): 30.12 inches Hg (1020.0 mb)
Winds: from the NE (50 degrees) at 6 MPH (5 knots; 2.6 m/s)
Visibility: 6 or more miles (10+ km)
Ceiling: 2000 feet AGL
Clouds: few clouds at 1700 feet AGL
broken clouds at 2000 feet AGL
Weather: VCTS  (thunderstorm in vicinity)

METAR text: FMMI 171900Z 02006KT 9999 -TSRA FEW017CB BKN020 19/18 Q1021 NOSIG
Conditions at: FMMI (ANTANANARIVO/IVA, KM) observed 1900 UTC 17 March 2019
Temperature: 19.0°C (66°F)
Dewpoint: 18.0°C (64°F) [RH = 94%]
Pressure (altimeter): 30.15 inches Hg (1021.0 mb)
Winds: from the NNE (20 degrees) at 7 MPH (6 knots; 3.1 m/s)
Visibility: 6 or more miles (10+ km)
Ceiling: 2000 feet AGL
Clouds: few clouds at 1700 feet AGL
broken clouds at 2000 feet AGL
Weather: -TSRA  (light rain associated with thunderstorm(s))

METAR text: FMMI 171830Z 08004KT 050V110 8000 -TSRA FEW017CB BKN020 19/18 Q1020 TEMPO 4500 TSRA
Conditions at: FMMI (ANTANANARIVO/IVA, KM) observed 1830 UTC 17 March 2019
Temperature: 19.0°C (66°F)
Dewpoint: 18.0°C (64°F) [RH = 94%]
Pressure (altimeter): 30.12 inches Hg (1020.0 mb)
Winds: from the E (80 degrees) at 5 MPH (4 knots; 2.1 m/s)
Visibility: 5 miles ( 8 km)
Ceiling: 2000 feet AGL
Clouds: few clouds at 1700 feet AGL
broken clouds at 2000 feet AGL
Weather: -TSRA  (light rain associated with thunderstorm(s))

Forecast for: FMMI (ANTANANARIVO/IVA, KM)
Text: TAF FMMI 190500Z 1906/2012 10006KT 9999 FEW016 SCT020
Forecast period: 0600 to 0900 UTC 19 March 2019
Forecast type: FROM: standard forecast or significant change
Winds: from the E (100 degrees) at 7 MPH (6 knots; 3.1 m/s)
Visibility: 6 or more miles 10+ km)
Ceiling: at least 12,000 feet AGL
Clouds: few clouds at 1600 feet AGL
scattered clouds at 2000 feet AGL
Weather: no significant weather forecast for this period
Text: BECMG 1909/1912 SCT020CB SCT023
Forecast period: 0900 to 1800 UTC 19 March 2019
Forecast type: BECOMING: Conditions expected to become as follows by 1200 UTC 19 March 2019
Winds: from the E (100 degrees) at 7 MPH (6 knots; 3.1 m/s)
Visibility: 6 or more miles 10+ km)
Ceiling: at least 12,000 feet AGL
Clouds: scattered clouds at 2000 feet AGL
scattered clouds at 2300 feet AGL
Weather: no significant weather forecast for this period
Text: PROB40
Forecast period: 1400 to 1900 UTC 19 March 2019
Forecast type: TEMPORARY: The following changes expected for less than half the time period
Visibility: missing
Ceiling: unknown
Clouds: missing
Weather: TS  (thunderstorm)
Text: TEMPO 1914/1919 TS
Forecast period: 1800 UTC 19 March 2019 to 1200 UTC 20 March 2019
Forecast type: BECOMING: Conditions expected to become as follows by 2100 UTC 19 March 2019
Winds: from the E (100 degrees) at 7 MPH (6 knots; 3.1 m/s)
Visibility: 6 or more miles 10+ km)
Ceiling: 2000 feet AGL
Clouds: few clouds at 1000 feet AGL
broken clouds at 2000 feet AGL
Weather: no significant weather forecast for this period
Text: BECMG 1918/1921 FEW010 BKN020
Forecast period: 0200 to 0500 UTC 20 March 2019
Forecast type: PROBABLE: 30 percent likelihood of the following during this time
Visibility: 1.24 miles (2.00 km)
Ceiling: unknown
Clouds: missing
Weather: BR  (mist)